Airfield :
LOGIN :

Register | Disclaimer

   EN    FR    IT 

 










Legend :    VFR   Marginal VFR   IFR   Intensive IFR   Very Intensive IFR
Visi :
Ceiling :
>= 8 km
>= 3000ft
5 to 8 km
1000 to 3000 ft
1500m to 5 km
500 to 1000 ft
800 to 1500m
200 to 500 ft
< 800m
< 200 ft
Symbols :   Thunderstorms  Fog  Heavy snow  Heavy precipitations  Wind > 20 kt
SIGMETs :     Misc.  Thunderstorms  Icing  Turbulence  Mountain Waves  Volcanic Ashes







- Airport Elevation : 40 ft
- IATA code : RMI


LIPR - Federico Fellini Int. Rimini

CURRENT METAR :
  • 220015Z 20003KT 6000 NSC 13/13 Q1017

EXPIRED METARs :
  • 212345Z 19003KT 6000 NSC 13/13 Q1017
  • 212315Z 19001KT 5000 BR NSC 13/12 Q1018
  • 212245Z 19001KT 5000 BR NSC 13/12 Q1018
  • 212215Z 19001KT 5000 BR NSC 13/12 Q1018
  • 212145Z 00000KT 5000 BR NSC 14/13 Q1019

TAF TAF LIPR
Valid from the 22 at 00:00 until the 22 at 09:00 UTC


212300Z 2200/2209 20007KT 5000 BR SCT015
TEMPO 2200/2206 1500 BR
No reported NOTAMs for that airfield.
1 SIGMET reported for the Milano FIR (LIMM) :
 
Embedded thunderstorms
LIMM SIGMET 1 VALID 220010/220410 LIIP
LIMM MILANO FIR EMBD TS FCST WI N4524 E00718 - N4549 E00904 - N4416 E00855 - N4347 E01010 - N4358 E01136 - N4438 E00945 - N4507 E01054 - N4607 E01137 - N4700 E01144 - N4624 E00925 - N4555 E00706 - N4524 E00718 TOP FL300 MOV SE INTSF=



MET'MAP, your aeronautical weather chart ! - Copyright ORBIFLY December 2007 - Disclaimer

ORBIFLY MET'MAP TEAM :

Programming & Development : Alexandra Zaïnal
Concept & Development : Baudouin d'Aumeries
Co-Development & Prog : Marc-Olivier Méhu
Technical & hardware support : Manuel Goepfert

Contact : metmap@orbifly.com




SOURCES & CREDITS :

   NOAA